Shreveport, LA

6:14 PM CDT on September 25, 2016 (GMT -0500)
Shreveport Regional | | Change Station

Elev 259 ft 32.45 °N, 93.82 °W | Updated 18 minutes ago

Scattered Clouds
Scattered Clouds
88 °F
Feels Like 91 °F
N
5
Wind Variable Wind from South

Today
High -- | Low -- °F
--% Chance of Precip.
Yesterday
High -- | Low -- °F
Precip. -- in
Pressure 29.97 in
Visibility 10.0 miles
Clouds Few 5000 ft
Scattered Clouds 28000 ft
Heat Index 91 °F
Dew Point 68 °F
Humidity 51%
Rainfall 0.00 in
Snow Depth Not available.
7:05 AM 7:07 PM
Waning Crescent, 24% visible
METAR KSHV 252256Z 18004KT 10SM FEW050 SCT280 31/20 A2998 RMK AO2 SLP148 T03110200
Pressure 29.97 in
Visibility 10.0 miles
Clouds Few 5000 ft
Scattered Clouds 28000 ft
Heat Index 91 °F
Dew Point 68 °F
Humidity 51%
Rainfall 0.00 in
Snow Depth Not available.
7:05 AM 7:07 PM
Waning Crescent, 24% visible
METAR KSHV 252256Z 18004KT 10SM FEW050 SCT280 31/20 A2998 RMK AO2 SLP148 T03110200

10-Day Weather Forecast

Almanac

Astronomy

Sep. 25, 2016 Rise Set
Actual Time
Civil Twilight
Nautical Twilight
Astronomical Twilight
Moon
Length of Visible Light
Length of Day
Tomorrow will be .
, % of the Moon is Illuminated

Today's Extremes

State Highs State Lows

Community

WunderPhotos

Upload Photos

1,941,777 photos uploaded!

WunderBlog® & News

Nearby

Air Quality

  Air Quality AQ Index Pollutant
Not available.

Snow Depth

Station Depth Elevation

Earthquake Activity

City Distance Mag. Time & Date
Minimum magnitude displayed is 2.5.

Coastal Water Temperatures

Place Temperature

Stations

Nearby Weather Stations

Station Location Temp. Windchill Dew Point Humidity Wind Precip. Elev Updated Type
                   

Watches & Warnings

There are currently no watches in effect.